Time;durP1;ratioP1;P1;durP2;ratioP2;P2;SDS_P1;SDS_P2;PMS_P1;PMS_P2;Temp;Humidity;BMP_temperature;BMP_pressure;BME280_temperature;BME280_humidity;BME280_pressure;Samples;Min_cycle;Max_cycle;Signal;HPM_P1;HPM_P2
2022/05/15 00:02:40;;;;;;;;;;;10.20;99.90;;;;;;5022858;28;20081;-72
2022/05/15 00:05:07;;;;;;;26.33;6.88;;;10.30;99.90;;;;;;5034756;28;19990;-72
2022/05/15 00:07:33;;;;;;;23.10;6.53;;;10.20;99.90;;;;;;5031216;28;20045;-71
2022/05/15 00:09:59;;;;;;;22.80;6.00;;;10.20;99.90;;;;;;5031084;28;20071;-72
2022/05/15 00:12:25;;;;;;;22.90;6.00;;;10.20;99.90;;;;;;5031174;28;20049;-72
2022/05/15 00:14:50;;;;;;;16.15;6.10;;;10.10;99.90;;;;;;5027897;28;20392;-72
2022/05/15 00:17:19;;;;;;;17.67;5.55;;;10.10;99.90;;;;;;5031152;28;20049;-71
2022/05/15 00:19:45;;;;;;;23.17;5.57;;;10.10;99.90;;;;;;5030794;28;20141;-72
2022/05/15 00:22:14;;;;;;;24.85;6.22;;;10.00;99.90;;;;;;5026578;28;20046;-72
2022/05/15 00:24:39;;;;;;;21.00;6.28;;;10.00;99.90;;;;;;5009845;28;20121;-71
2022/05/15 00:27:05;;;;;;;23.20;6.78;;;10.00;99.90;;;;;;5022494;28;20049;-72
2022/05/15 00:29:31;;;;;;;27.52;6.78;;;9.90;99.90;;;;;;5026965;28;20065;-72
2022/05/15 00:31:57;;;;;;;20.35;7.38;;;9.90;99.90;;;;;;5028791;28;20053;-72
2022/05/15 00:34:23;;;;;;;27.60;6.90;;;9.90;99.90;;;;;;5029762;28;20493;-72
2022/05/15 00:36:48;;;;;;;19.67;6.32;;;9.90;99.90;;;;;;5030659;28;20079;-72
2022/05/15 00:39:14;;;;;;;24.90;7.20;;;9.90;99.90;;;;;;5030113;28;20071;-71
2022/05/15 00:41:40;;;;;;;22.02;6.97;;;9.80;99.90;;;;;;5030305;28;20041;-72
2022/05/15 00:44:07;;;;;;;22.83;6.20;;;9.80;99.90;;;;;;5029935;28;20610;-72
2022/05/15 00:46:36;;;;;;;22.48;6.75;;;9.80;99.90;;;;;;5015291;28;20045;-72
2022/05/15 00:49:05;;;;;;;24.05;6.82;;;9.80;99.90;;;;;;5026692;28;20118;-72
2022/05/15 00:51:45;;;;;;;24.08;7.30;;;9.80;99.90;;;;;;5020801;28;20492;-72
2022/05/15 00:54:40;;;;;;;19.27;6.47;;;9.80;99.90;;;;;;5030775;28;20432;-72
2022/05/15 00:57:21;;;;;;;25.45;8.13;;;9.80;99.90;;;;;;5029574;28;20140;-72
2022/05/15 01:00:10;;;;;;;17.17;6.05;;;9.80;99.90;;;;;;5029575;28;20041;-72
2022/05/15 01:02:51;;;;;;;27.63;6.85;;;9.70;99.90;;;;;;5061239;28;20405;-71
2022/05/15 01:05:18;;;;;;;22.50;6.47;;;9.70;99.90;;;;;;5025903;28;20165;-71
2022/05/15 01:07:43;;;;;;;23.95;6.82;;;9.70;99.90;;;;;;5008855;28;20497;-72
2022/05/15 01:10:10;;;;;;;20.38;6.55;;;9.70;99.90;;;;;;5022310;28;20048;-72
2022/05/15 01:12:40;;;;;;;18.55;6.10;;;9.70;99.90;;;;;;5045566;28;20045;-72
2022/05/15 01:15:10;;;;;;;19.48;5.93;;;9.70;99.90;;;;;;5035950;28;20068;-72
2022/05/15 01:17:37;;;;;;;23.55;6.43;;;9.60;99.90;;;;;;5029187;28;20668;-72
2022/05/15 01:20:07;;;;;;;20.20;7.20;;;9.60;99.90;;;;;;5028511;28;20040;-71
2022/05/15 01:22:33;;;;;;;28.23;6.72;;;9.60;99.90;;;;;;5018800;28;20076;-72
2022/05/15 01:24:59;;;;;;;21.13;6.50;;;9.60;99.90;;;;;;5021112;28;20073;-72
2022/05/15 01:27:25;;;;;;;18.17;6.18;;;9.60;99.90;;;;;;5045771;28;20042;-71
2022/05/15 01:29:51;;;;;;;23.73;6.22;;;9.60;99.90;;;;;;5027932;28;20130;-72
2022/05/15 01:32:17;;;;;;;17.70;5.57;;;9.50;99.90;;;;;;5029792;28;20050;-72
2022/05/15 01:34:42;;;;;;;21.10;6.43;;;9.50;99.90;;;;;;5028291;28;20432;-72
2022/05/15 01:37:09;;;;;;;16.83;5.68;;;9.50;99.90;;;;;;5030121;28;20037;-72
2022/05/15 01:39:35;;;;;;;19.27;5.93;;;9.40;99.90;;;;;;5013105;28;20054;-71
2022/05/15 01:42:02;;;;;;;22.42;6.95;;;9.40;99.90;;;;;;5010443;28;20453;-72
2022/05/15 01:44:27;;;;;;;23.42;6.25;;;9.40;99.90;;;;;;5028518;28;20133;-71
2022/05/15 01:46:53;;;;;;;21.05;6.55;;;9.30;99.90;;;;;;5011196;28;20545;-72
2022/05/15 01:49:19;;;;;;;24.25;7.90;;;9.30;99.90;;;;;;5009184;28;20049;-72
2022/05/15 01:51:48;;;;;;;21.70;6.68;;;9.30;99.90;;;;;;5014549;28;20472;-71
2022/05/15 01:54:14;;;;;;;20.98;7.00;;;9.20;99.90;;;;;;5028748;28;20520;-71
2022/05/15 01:56:40;;;;;;;21.02;6.95;;;9.20;99.90;;;;;;5026630;28;20041;-71
2022/05/15 01:59:08;;;;;;;19.00;6.82;;;9.20;99.90;;;;;;5009412;28;20053;-71
2022/05/15 02:01:34;;;;;;;20.13;6.63;;;9.20;99.90;;;;;;5009181;28;20416;-72
2022/05/15 02:04:00;;;;;;;23.55;6.70;;;9.20;99.90;;;;;;5014340;28;20045;-72
2022/05/15 02:06:28;;;;;;;17.15;6.10;;;9.10;99.90;;;;;;5030383;28;20110;-72
2022/05/15 02:08:54;;;;;;;21.60;6.97;;;9.10;99.90;;;;;;5027258;28;21763;-72
2022/05/15 02:11:20;;;;;;;18.63;5.78;;;9.10;99.90;;;;;;5013087;28;20057;-72
2022/05/15 02:13:46;;;;;;;20.85;6.22;;;9.00;99.90;;;;;;5017543;28;20037;-73
2022/05/15 02:16:11;;;;;;;22.88;7.85;;;9.00;99.90;;;;;;5032625;28;20106;-71
2022/05/15 02:18:37;;;;;;;19.80;7.03;;;9.00;99.90;;;;;;5032565;28;20122;-72
2022/05/15 02:21:03;;;;;;;18.23;6.57;;;9.00;99.90;;;;;;5031922;28;20199;-72
2022/05/15 02:23:29;;;;;;;22.80;6.43;;;9.00;99.90;;;;;;5026009;28;20053;-72
2022/05/15 02:25:54;;;;;;;20.98;6.53;;;9.00;99.90;;;;;;5012934;28;20054;-72
2022/05/15 02:28:20;;;;;;;18.85;6.60;;;9.00;99.90;;;;;;5013174;28;20053;-72
2022/05/15 02:30:49;;;;;;;18.83;6.35;;;9.00;99.90;;;;;;5035382;28;20416;-72
2022/05/15 02:33:15;;;;;;;19.63;6.47;;;8.90;99.90;;;;;;5036679;28;20050;-72
2022/05/15 02:35:42;;;;;;;24.73;6.93;;;9.00;99.90;;;;;;5032613;28;20127;-72
2022/05/15 02:38:08;;;;;;;20.38;7.05;;;8.90;99.90;;;;;;5064661;28;20056;-72
2022/05/15 02:40:33;;;;;;;18.70;6.57;;;8.90;99.90;;;;;;5031452;28;20214;-72
2022/05/15 02:42:59;;;;;;;23.13;6.78;;;8.90;99.90;;;;;;5031260;28;20045;-72
2022/05/15 02:45:25;;;;;;;17.73;5.85;;;8.90;99.90;;;;;;5024923;28;20081;-72
2022/05/15 02:47:51;;;;;;;19.50;6.50;;;8.90;99.90;;;;;;5017746;28;20154;-72
2022/05/15 02:53:02;;;;;;;;;;;8.80;99.90;;;;;;5031624;28;20210;-72
2022/05/15 02:55:28;;;;;;;18.75;6.50;;;8.80;99.90;;;;;;5030657;28;19932;-72
2022/05/15 02:57:54;;;;;;;17.52;6.22;;;8.70;99.90;;;;;;5027687;28;20049;-72
2022/05/15 03:00:23;;;;;;;18.52;6.10;;;8.70;99.90;;;;;;5030014;28;20056;-72
2022/05/15 03:02:50;;;;;;;18.00;6.32;;;8.70;99.90;;;;;;5032272;28;20053;-72
2022/05/15 03:05:19;;;;;;;18.40;5.97;;;8.70;99.90;;;;;;5031758;28;20061;-72
2022/05/15 03:07:47;;;;;;;18.27;6.35;;;8.70;99.90;;;;;;5031632;28;20092;-72
2022/05/15 03:10:16;;;;;;;19.85;6.53;;;8.60;99.90;;;;;;5032379;28;20508;-71
2022/05/15 03:12:42;;;;;;;19.98;7.10;;;8.60;99.90;;;;;;5027941;28;20052;-72
2022/05/15 03:15:11;;;;;;;21.92;6.50;;;8.60;99.90;;;;;;5026453;28;20058;-73
2022/05/15 03:17:41;;;;;;;17.95;6.05;;;8.60;99.90;;;;;;5027068;28;20053;-72
2022/05/15 03:20:08;;;;;;;19.30;6.82;;;8.50;99.90;;;;;;5025048;28;20472;-71
2022/05/15 03:22:33;;;;;;;19.17;7.05;;;8.50;99.90;;;;;;5024958;28;20463;-72
2022/05/15 03:24:59;;;;;;;22.92;6.57;;;8.50;99.90;;;;;;5020830;28;20046;-72
2022/05/15 03:27:24;;;;;;;18.38;6.97;;;8.40;99.90;;;;;;5023548;28;20403;-72
2022/05/15 03:29:50;;;;;;;21.95;6.55;;;8.40;99.90;;;;;;5027173;28;20057;-71
2022/05/15 03:32:15;;;;;;;17.65;5.82;;;8.50;99.90;;;;;;5023227;28;20500;-72
2022/05/15 03:34:41;;;;;;;17.35;6.90;;;8.40;99.90;;;;;;5027964;28;20044;-72
2022/05/15 03:37:07;;;;;;;19.13;6.32;;;8.40;99.90;;;;;;5032026;28;20048;-72
2022/05/15 03:39:33;;;;;;;18.50;6.43;;;8.40;99.90;;;;;;5022418;28;20398;-72
2022/05/15 03:41:59;;;;;;;18.63;6.50;;;8.40;99.90;;;;;;5025599;28;20045;-72
2022/05/15 03:44:25;;;;;;;18.08;6.68;;;8.40;99.90;;;;;;5030970;28;20107;-72
2022/05/15 03:46:51;;;;;;;24.23;7.07;;;8.30;99.90;;;;;;5030128;28;20046;-72
2022/05/15 03:49:17;;;;;;;16.17;6.38;;;8.40;99.90;;;;;;5027815;28;20451;-71
2022/05/15 03:51:42;;;;;;;19.95;6.50;;;8.30;99.90;;;;;;5027850;28;20053;-72
2022/05/15 03:54:09;;;;;;;21.17;6.40;;;8.30;99.90;;;;;;5030948;28;20052;-72
2022/05/15 03:56:50;;;;;;;16.33;7.63;;;8.30;99.90;;;;;;5027262;28;20053;-73
2022/05/15 03:59:19;;;;;;;17.80;6.28;;;8.30;99.90;;;;;;5019936;28;20064;-72
2022/05/15 04:01:45;;;;;;;18.23;6.65;;;8.30;99.90;;;;;;5058961;28;20091;-71
2022/05/15 04:04:11;;;;;;;18.98;7.07;;;8.30;99.90;;;;;;5058486;28;20455;-72
2022/05/15 04:06:38;;;;;;;22.17;7.45;;;8.30;99.90;;;;;;5025871;28;20512;-72
2022/05/15 04:09:04;;;;;;;18.02;6.15;;;8.40;99.90;;;;;;5028069;28;20147;-72
2022/05/15 04:11:31;;;;;;;16.70;6.45;;;8.40;99.90;;;;;;5025090;28;20048;-72
2022/05/15 04:13:56;;;;;;;20.45;6.78;;;8.40;99.90;;;;;;5026903;28;20372;-71
2022/05/15 04:16:22;;;;;;;22.05;7.35;;;8.40;99.90;;;;;;5027629;28;20057;-71
2022/05/15 04:18:52;;;;;;;20.85;6.97;;;8.40;99.90;;;;;;5026261;28;20052;-72
2022/05/15 04:21:19;;;;;;;18.90;6.53;;;8.40;99.90;;;;;;5027101;28;20053;-72
2022/05/15 04:23:44;;;;;;;23.35;6.78;;;8.40;99.90;;;;;;5019145;28;20408;-72
2022/05/15 04:26:11;;;;;;;17.73;7.47;;;8.40;99.90;;;;;;5025374;28;20045;-72
2022/05/15 04:28:37;;;;;;;20.25;7.07;;;8.40;99.90;;;;;;5025899;28;20072;-72
2022/05/15 04:31:03;;;;;;;20.83;8.27;;;8.40;99.90;;;;;;5026716;28;20130;-72
2022/05/15 04:33:29;;;;;;;27.02;9.48;;;8.50;99.90;;;;;;5054471;28;20050;-72
2022/05/15 04:35:55;;;;;;;36.83;10.77;;;8.50;99.90;;;;;;5041014;28;20144;-72
2022/05/15 04:38:20;;;;;;;29.77;9.23;;;8.50;99.90;;;;;;5061719;28;20048;-72
2022/05/15 04:40:46;;;;;;;26.52;10.15;;;8.60;99.90;;;;;;5020378;28;20041;-71
2022/05/15 04:43:11;;;;;;;28.80;9.77;;;8.60;99.90;;;;;;5028954;28;20046;-72
2022/05/15 04:45:41;;;;;;;23.38;9.18;;;8.70;99.90;;;;;;5027423;28;20042;-72
2022/05/15 04:48:09;;;;;;;23.65;9.70;;;8.70;99.90;;;;;;5026502;28;20046;-71
2022/05/15 04:50:37;;;;;;;28.23;9.68;;;8.70;99.90;;;;;;5029130;28;20390;-72
2022/05/15 04:53:07;;;;;;;26.77;10.00;;;8.80;99.90;;;;;;5045006;28;20555;-71
2022/05/15 04:55:33;;;;;;;27.65;8.75;;;8.80;99.90;;;;;;5032589;28;20041;-72
2022/05/15 04:57:59;;;;;;;30.45;9.95;;;8.90;99.90;;;;;;5025860;28;20430;-72
2022/05/15 05:00:25;;;;;;;28.02;11.23;;;8.90;99.90;;;;;;5024808;28;20131;-72
2022/05/15 05:02:50;;;;;;;32.22;10.93;;;8.90;99.90;;;;;;5023150;28;20044;-72
2022/05/15 05:05:16;;;;;;;29.67;10.00;;;9.00;99.90;;;;;;5024563;28;20034;-72
2022/05/15 05:07:42;;;;;;;22.10;9.13;;;9.00;99.90;;;;;;5023168;28;20566;-72
2022/05/15 05:10:09;;;;;;;28.02;9.57;;;9.10;99.90;;;;;;5026817;28;20050;-72
2022/05/15 05:12:36;;;;;;;28.17;10.57;;;9.10;99.90;;;;;;5026620;28;20515;-71
2022/05/15 05:15:03;;;;;;;28.33;9.98;;;9.20;99.90;;;;;;5010831;28;20046;-72
2022/05/15 05:17:30;;;;;;;32.38;10.93;;;9.20;99.90;;;;;;5022297;28;20384;-72
2022/05/15 05:19:55;;;;;;;31.65;10.50;;;9.20;99.90;;;;;;5013711;28;20046;-72
2022/05/15 05:22:21;;;;;;;24.98;10.75;;;9.30;99.90;;;;;;5024348;28;20057;-72
2022/05/15 05:24:46;;;;;;;29.20;11.32;;;9.30;99.90;;;;;;5022183;28;20033;-72
2022/05/15 05:27:12;;;;;;;35.47;12.18;;;9.40;99.90;;;;;;5023244;28;20060;-72
2022/05/15 05:29:38;;;;;;;28.10;11.02;;;9.40;99.90;;;;;;5032692;28;20050;-72
2022/05/15 05:32:04;;;;;;;29.20;11.80;;;9.50;99.90;;;;;;5027019;28;20057;-71
2022/05/15 05:34:29;;;;;;;31.13;10.10;;;9.50;99.90;;;;;;5026989;28;20095;-72
2022/05/15 05:36:55;;;;;;;32.63;10.70;;;9.60;99.90;;;;;;5049346;28;20543;-72
2022/05/15 05:39:21;;;;;;;36.60;10.55;;;9.60;99.90;;;;;;5031238;28;20818;-72
2022/05/15 05:41:47;;;;;;;30.90;11.85;;;9.60;99.90;;;;;;5025445;28;20048;-72
2022/05/15 05:44:13;;;;;;;27.63;10.25;;;9.70;99.90;;;;;;5030659;28;20045;-72
2022/05/15 05:46:39;;;;;;;32.35;10.68;;;9.70;99.90;;;;;;5031020;28;20042;-72
2022/05/15 05:49:04;;;;;;;22.42;10.70;;;9.80;99.90;;;;;;5057581;28;20107;-72
2022/05/15 05:51:30;;;;;;;25.27;9.38;;;9.90;99.90;;;;;;5032077;28;20042;-72
2022/05/15 05:53:58;;;;;;;27.33;10.38;;;9.90;99.90;;;;;;5028798;28;20049;-71
2022/05/15 05:56:24;;;;;;;30.73;10.85;;;10.00;99.90;;;;;;5030782;28;20041;-72
2022/05/15 05:58:49;;;;;;;25.27;9.77;;;10.00;99.90;;;;;;5029038;28;21813;-72
2022/05/15 06:01:15;;;;;;;28.63;11.57;;;10.00;99.90;;;;;;5030683;28;20040;-72
2022/05/15 06:06:25;;;;;;;26.53;11.00;;;10.10;99.90;;;;;;5030480;28;20054;-74
2022/05/15 06:08:50;;;;;;;32.67;11.52;;;10.20;99.90;;;;;;5029491;28;20057;-75
2022/05/15 06:11:16;;;;;;;29.42;10.20;;;10.30;99.90;;;;;;5024804;28;20045;-75
2022/05/15 06:13:41;;;;;;;34.03;9.52;;;10.30;99.90;;;;;;5027728;28;20041;-75
2022/05/15 06:16:08;;;;;;;32.78;10.65;;;10.40;99.90;;;;;;5025244;28;20076;-75
2022/05/15 06:18:34;;;;;;;26.23;9.40;;;10.50;99.90;;;;;;5028854;28;20171;-75
2022/05/15 06:20:59;;;;;;;24.40;9.13;;;10.50;99.90;;;;;;5027353;28;20120;-75
2022/05/15 06:23:25;;;;;;;30.02;9.77;;;10.60;99.90;;;;;;5023782;28;20520;-75
2022/05/15 06:25:51;;;;;;;23.02;9.18;;;10.70;99.90;;;;;;5026369;28;20041;-74
2022/05/15 06:28:16;;;;;;;26.88;9.85;;;10.80;99.90;;;;;;5024408;28;20569;-75
2022/05/15 06:30:42;;;;;;;29.40;9.18;;;10.80;99.90;;;;;;5030390;28;20124;-74
2022/05/15 06:33:08;;;;;;;30.13;8.73;;;10.90;99.90;;;;;;5029847;28;20049;-74
2022/05/15 06:35:34;;;;;;;25.45;8.40;;;11.00;99.90;;;;;;5025922;28;20303;-76
2022/05/15 06:38:01;;;;;;;30.90;10.88;;;11.10;99.90;;;;;;5031391;28;20056;-76
2022/05/15 06:40:26;;;;;;;30.95;7.93;;;11.20;99.90;;;;;;5022815;28;20070;-74
2022/05/15 06:42:52;;;;;;;27.83;8.77;;;11.30;99.90;;;;;;5025369;28;20138;-75
2022/05/15 06:45:20;;;;;;;26.63;8.45;;;11.30;99.90;;;;;;5028183;28;20489;-74
2022/05/15 06:47:46;;;;;;;27.40;9.98;;;11.40;99.90;;;;;;5030601;28;20084;-74
2022/05/15 06:50:11;;;;;;;24.90;7.65;;;11.50;99.90;;;;;;5027760;28;20088;-75
2022/05/15 06:52:38;;;;;;;21.67;6.95;;;11.60;99.90;;;;;;5021382;28;20042;-74
2022/05/15 06:55:10;;;;;;;23.98;7.75;;;11.60;99.90;;;;;;5028951;28;20056;-74
2022/05/15 06:57:37;;;;;;;26.05;6.78;;;11.70;99.90;;;;;;5032313;28;20064;-74
2022/05/15 07:00:12;;;;;;;23.17;6.40;;;11.80;99.90;;;;;;5028659;28;20046;-74
2022/05/15 07:02:41;;;;;;;23.88;6.55;;;11.90;99.90;;;;;;5032271;28;20365;-74
2022/05/15 07:05:08;;;;;;;30.00;6.80;;;11.90;99.90;;;;;;5047993;28;20049;-74
2022/05/15 07:07:34;;;;;;;21.95;5.32;;;12.00;99.90;;;;;;5030041;28;20049;-73
2022/05/15 07:09:59;;;;;;;26.77;6.80;;;12.20;99.90;;;;;;5017732;28;20045;-74
2022/05/15 07:12:25;;;;;;;23.70;6.00;;;12.40;99.90;;;;;;5022164;28;20037;-74
2022/05/15 07:14:51;;;;;;;23.38;6.68;;;12.60;99.90;;;;;;5055499;28;20042;-72
2022/05/15 07:17:16;;;;;;;24.40;6.65;;;12.90;99.90;;;;;;5029446;28;20499;-72
2022/05/15 07:19:42;;;;;;;23.73;6.18;;;13.20;99.90;;;;;;5033166;28;20114;-73
2022/05/15 07:22:10;;;;;;;24.83;5.78;;;13.50;99.90;;;;;;5031098;28;20045;-73
2022/05/15 07:24:38;;;;;;;19.73;5.50;;;13.80;99.90;;;;;;5026226;28;20447;-73
2022/05/15 07:27:06;;;;;;;20.67;5.45;;;14.10;99.90;;;;;;5030287;28;20369;-73
2022/05/15 07:29:33;;;;;;;19.30;5.07;;;14.40;99.90;;;;;;5046473;28;20085;-73
2022/05/15 07:31:59;;;;;;;23.05;5.57;;;14.70;99.90;;;;;;5027899;28;20504;-74
2022/05/15 07:34:24;;;;;;;14.18;5.32;;;14.90;99.90;;;;;;5030037;28;20047;-77
2022/05/15 07:36:52;;;;;;;19.65;5.05;;;15.10;99.90;;;;;;5031546;28;20099;-78
2022/05/15 07:39:20;;;;;;;21.05;4.38;;;15.30;99.90;;;;;;5022592;28;20508;-78
2022/05/15 07:41:46;;;;;;;17.00;4.13;;;15.40;99.90;;;;;;5022920;28;20124;-77
2022/05/15 07:44:11;;;;;;;16.88;4.10;;;15.60;99.90;;;;;;5030849;28;20129;-76
2022/05/15 07:46:37;;;;;;;19.67;4.55;;;15.70;99.90;;;;;;5024805;28;20034;-77
2022/05/15 07:49:03;;;;;;;20.17;4.20;;;15.80;99.90;;;;;;5021940;28;20107;-76
2022/05/15 07:51:31;;;;;;;19.00;4.40;;;15.90;99.90;;;;;;5031441;28;20073;-76
2022/05/15 07:53:59;;;;;;;17.67;4.43;;;16.00;99.90;;;;;;5052687;28;20052;-76
2022/05/15 07:56:25;;;;;;;17.15;4.45;;;16.10;99.90;;;;;;5024989;28;20559;-77
2022/05/15 07:58:51;;;;;;;15.48;4.63;;;16.10;99.90;;;;;;5024305;28;21922;-77
2022/05/15 08:01:17;;;;;;;18.73;4.70;;;16.20;99.90;;;;;;5013100;28;20141;-77
2022/05/15 08:03:46;;;;;;;18.90;4.65;;;16.30;99.90;;;;;;5022008;28;20044;-77
2022/05/15 08:09:00;;;;;;;13.88;3.50;;;16.50;99.90;;;;;;5020372;28;20383;-76
2022/05/15 08:11:28;;;;;;;16.70;3.65;;;16.60;99.90;;;;;;5019646;28;20462;-75
2022/05/15 08:13:55;;;;;;;14.23;4.20;;;16.60;99.90;;;;;;5024400;28;20060;-79
2022/05/15 08:16:21;;;;;;;14.10;3.78;;;16.70;99.90;;;;;;5024141;28;20046;-77
2022/05/15 08:24:15;;;;;;;13.80;3.60;;;16.90;99.90;;;;;;5016810;28;20049;-73
2022/05/15 08:26:41;;;;;;;17.05;4.50;;;17.00;99.90;;;;;;5025155;28;20045;-74
2022/05/15 08:29:07;;;;;;;14.40;3.72;;;17.00;99.90;;;;;;5021741;28;20046;-74
2022/05/15 08:31:34;;;;;;;19.30;3.70;;;17.10;99.90;;;;;;5019805;28;20852;-76
2022/05/15 08:34:00;;;;;;;13.95;4.28;;;17.20;99.90;;;;;;5021115;28;20119;-76
2022/05/15 08:36:25;;;;;;;17.92;4.10;;;17.30;99.90;;;;;;5022509;28;20480;-75
2022/05/15 08:38:51;;;;;;;13.43;3.50;;;17.40;99.90;;;;;;5021545;28;20405;-74
2022/05/15 08:41:34;;;;;;;15.30;3.85;;;17.50;99.90;;;;;;5021925;28;20049;-74
2022/05/15 08:44:21;;;;;;;21.90;4.05;;;17.60;99.90;;;;;;5004675;28;20042;-75
2022/05/15 08:47:04;;;;;;;14.05;3.28;;;17.80;99.90;;;;;;5019628;28;20663;-75
2022/05/15 08:49:42;;;;;;;18.40;4.20;;;17.90;99.90;;;;;;5023135;28;20400;-75
2022/05/15 08:52:26;;;;;;;14.13;3.88;;;18.10;99.90;;;;;;5019397;28;20115;-74
2022/05/15 08:55:06;;;;;;;13.30;3.75;;;18.20;99.90;;;;;;5021144;28;20056;-74
2022/05/15 08:57:44;;;;;;;15.52;3.83;;;18.40;99.90;;;;;;5024195;28;20041;-75
2022/05/15 09:00:14;;;;;;;19.02;4.18;;;18.50;98.50;;;;;;5020505;28;20135;-75
2022/05/15 09:02:42;;;;;;;21.98;4.35;;;18.60;99.90;;;;;;5022787;28;20124;-76
2022/05/15 09:05:09;;;;;;;19.48;4.07;;;18.70;99.90;;;;;;5046322;28;20050;-75
2022/05/15 09:07:47;;;;;;;17.25;3.67;;;18.80;99.90;;;;;;5021518;28;20055;-76
2022/05/15 09:10:28;;;;;;;17.70;3.90;;;18.90;98.70;;;;;;5019168;28;20077;-75
2022/05/15 09:13:16;;;;;;;15.20;3.83;;;19.00;98.70;;;;;;5018930;28;20057;-78
2022/05/15 09:15:57;;;;;;;15.38;4.00;;;19.10;98.80;;;;;;5019892;28;20037;-75
2022/05/15 09:18:23;;;;;;;12.93;3.67;;;19.30;97.80;;;;;;5019698;28;20068;-72
2022/05/15 09:21:03;;;;;;;14.23;3.50;;;19.40;98.00;;;;;;5018657;28;20053;-72
2022/05/15 09:23:39;;;;;;;17.25;4.25;;;19.40;97.60;;;;;;5016651;28;20042;-74
2022/05/15 09:26:28;;;;;;;18.15;4.28;;;19.60;96.60;;;;;;5020371;28;20457;-74
2022/05/15 09:28:55;;;;;;;16.17;4.20;;;19.70;96.00;;;;;;5019215;28;20049;-75
2022/05/15 09:31:38;;;;;;;15.88;3.83;;;19.80;96.80;;;;;;4995664;28;20137;-73
2022/05/15 09:34:10;;;;;;;18.85;4.00;;;19.80;95.40;;;;;;4978623;28;20054;-76
2022/05/15 09:36:36;;;;;;;21.35;4.28;;;19.90;96.20;;;;;;4977875;28;20080;-75
2022/05/15 09:39:35;;;;;;;14.90;3.70;;;20.00;96.10;;;;;;4982260;28;20108;-77
2022/05/15 09:45:08;;;;;;;15.38;3.80;;;20.10;93.30;;;;;;4998819;28;20058;-77
2022/05/15 09:47:36;;;;;;;14.68;3.40;;;20.10;94.30;;;;;;4982953;28;20382;-77
2022/05/15 09:50:02;;;;;;;16.38;4.65;;;20.10;94.10;;;;;;4988836;28;20448;-76
2022/05/15 09:52:42;;;;;;;17.33;3.88;;;20.20;94.50;;;;;;5005905;28;20105;-77
2022/05/15 09:55:11;;;;;;;16.30;3.40;;;20.30;93.60;;;;;;5007139;28;20042;-79
2022/05/15 09:57:37;;;;;;;14.45;3.67;;;20.40;94.50;;;;;;5002192;28;20089;-79
2022/05/15 10:00:10;;;;;;;17.38;3.88;;;20.40;94.30;;;;;;5005877;28;20070;-78
2022/05/15 10:02:49;;;;;;;17.70;4.30;;;20.50;93.90;;;;;;5005250;28;20089;-77
2022/05/15 10:05:14;;;;;;;16.90;4.32;;;20.70;93.40;;;;;;4982000;28;20089;-78
2022/05/15 10:07:45;;;;;;;13.52;3.88;;;20.80;93.60;;;;;;4992579;28;20085;-81
2022/05/15 10:10:24;;;;;;;13.70;3.20;;;20.80;93.40;;;;;;5004907;28;20038;-80
2022/05/15 10:12:57;;;;;;;14.50;4.25;;;21.00;93.30;;;;;;5002862;28;20405;-80
2022/05/15 10:15:24;;;;;;;15.43;4.28;;;21.00;92.40;;;;;;4999626;28;20042;-80
2022/05/15 10:17:56;;;;;;;19.25;4.97;;;21.10;92.70;;;;;;4983267;28;20050;-80
2022/05/15 10:20:30;;;;;;;19.23;4.43;;;21.10;92.30;;;;;;5001276;28;20038;-76
2022/05/15 10:23:00;;;;;;;12.70;3.25;;;21.20;92.20;;;;;;4981198;28;20081;-77
2022/05/15 10:25:36;;;;;;;16.23;4.15;;;21.20;91.80;;;;;;5008606;28;20057;-78
2022/05/15 10:28:36;;;;;;;14.07;3.40;;;21.30;91.30;;;;;;4985119;28;20070;-78
2022/05/15 10:31:08;;;;;;;14.77;3.70;;;21.40;90.80;;;;;;5025495;28;20504;-76
2022/05/15 10:33:38;;;;;;;14.60;4.65;;;21.50;91.60;;;;;;5031014;28;20136;-78
2022/05/15 10:36:24;;;;;;;15.52;4.35;;;21.50;90.70;;;;;;5029044;28;20099;-78
2022/05/15 10:39:05;;;;;;;13.38;3.90;;;21.50;90.70;;;;;;5029931;28;20053;-76
2022/05/15 10:42:16;;;;;;;15.35;4.15;;;21.60;90.30;;;;;;5030763;28;20053;-78
2022/05/15 10:44:59;;;;;;;19.88;4.05;;;21.70;90.90;;;;;;5028970;28;20045;-79
2022/05/15 10:47:37;;;;;;;13.93;4.13;;;21.80;90.60;;;;;;5027072;28;20049;-81
2022/05/15 10:50:21;;;;;;;14.18;3.65;;;21.80;89.10;;;;;;5028623;28;20077;-80
2022/05/15 10:59:32;;;;;;;14.63;3.58;;;22.00;89.30;;;;;;5026445;28;20052;-79
2022/05/15 11:02:29;;;;;;;12.40;3.80;;;22.10;88.60;;;;;;5027799;28;20068;-73
2022/05/15 11:05:17;;;;;;;15.10;3.22;;;22.10;85.40;;;;;;5031027;28;20084;-74
2022/05/15 11:07:55;;;;;;;14.32;4.00;;;22.10;87.40;;;;;;5029472;28;20115;-73
2022/05/15 11:10:35;;;;;;;17.42;4.00;;;22.20;88.60;;;;;;5029644;28;20472;-74
2022/05/15 11:13:19;;;;;;;14.93;3.47;;;22.30;88.90;;;;;;5027768;28;20074;-75
2022/05/15 11:16:13;;;;;;;16.30;3.97;;;22.40;87.00;;;;;;5025024;28;20045;-76
2022/05/15 11:18:58;;;;;;;15.57;3.70;;;22.60;85.00;;;;;;5029697;28;20077;-74
2022/05/15 11:21:30;;;;;;;13.88;3.53;;;22.70;83.00;;;;;;5028681;28;20050;-76
2022/05/15 11:24:29;;;;;;;12.98;3.20;;;22.60;84.50;;;;;;5024616;28;20091;-76
2022/05/15 11:27:11;;;;;;;15.05;3.25;;;22.60;83.60;;;;;;5025744;28;20072;-75
2022/05/15 11:29:42;;;;;;;14.65;3.55;;;22.70;84.20;;;;;;5030097;28;20069;-75
2022/05/15 11:32:29;;;;;;;12.55;3.22;;;22.80;84.20;;;;;;5026046;28;20546;-75
2022/05/15 11:35:19;;;;;;;16.45;3.83;;;22.90;83.80;;;;;;5022640;28;20053;-75
2022/05/15 11:37:53;;;;;;;14.20;3.60;;;23.00;83.20;;;;;;5028162;28;20053;-75
2022/05/15 11:40:31;;;;;;;15.82;3.80;;;23.20;83.20;;;;;;5027613;28;20053;-75
2022/05/15 11:42:58;;;;;;;13.18;3.72;;;23.20;79.40;;;;;;5023871;28;20060;-75
2022/05/15 11:45:33;;;;;;;15.35;3.42;;;23.30;82.40;;;;;;5027692;28;20049;-74
2022/05/15 11:48:03;;;;;;;13.18;3.70;;;23.30;80.80;;;;;;5028208;28;20081;-75
2022/05/15 11:50:35;;;;;;;15.55;3.47;;;23.30;81.50;;;;;;5028468;28;20080;-75
2022/05/15 11:53:00;;;;;;;23.70;4.15;;;23.40;81.70;;;;;;5056029;28;20049;-74
2022/05/15 11:55:49;;;;;;;11.35;3.22;;;23.50;82.00;;;;;;5030160;28;20044;-75
2022/05/15 11:58:23;;;;;;;12.52;3.05;;;23.60;79.00;;;;;;5030079;28;20071;-75
2022/05/15 12:01:13;;;;;;;22.13;4.35;;;23.60;81.30;;;;;;5027107;28;20081;-75
2022/05/15 12:03:39;;;;;;;14.02;3.45;;;23.70;79.90;;;;;;5021387;28;20038;-77
2022/05/15 12:06:23;;;;;;;15.95;3.60;;;23.60;79.80;;;;;;5028398;28;20132;-76
2022/05/15 12:08:52;;;;;;;14.05;3.50;;;23.60;76.20;;;;;;5026603;28;20045;-75
2022/05/15 12:11:18;;;;;;;17.40;3.25;;;23.60;78.50;;;;;;5024804;28;20049;-75
2022/05/15 12:13:46;;;;;;;17.20;3.53;;;23.70;79.20;;;;;;5027477;28;20409;-76
2022/05/15 12:16:23;;;;;;;14.65;3.50;;;23.90;78.70;;;;;;5026678;28;20048;-75
2022/05/15 12:19:14;;;;;;;11.18;2.80;;;24.10;77.10;;;;;;5028730;28;20052;-75
2022/05/15 12:21:46;;;;;;;11.13;3.15;;;24.30;75.30;;;;;;5024849;28;20045;-75
2022/05/15 12:24:27;;;;;;;13.35;3.22;;;24.30;75.60;;;;;;5026219;28;20052;-74
2022/05/15 12:27:00;;;;;;;12.23;3.28;;;24.30;76.20;;;;;;5028835;28;20037;-75
2022/05/15 12:29:49;;;;;;;11.00;3.05;;;24.40;76.80;;;;;;5026308;28;20455;-75
2022/05/15 12:32:21;;;;;;;14.15;3.20;;;24.50;75.00;;;;;;5024851;28;20053;-74
2022/05/15 12:34:50;;;;;;;14.75;3.28;;;24.50;76.20;;;;;;5030381;28;20068;-75
2022/05/15 12:37:52;;;;;;;12.57;2.95;;;24.60;75.40;;;;;;5028428;28;20049;-74
2022/05/15 12:40:27;;;;;;;10.50;2.50;;;24.60;72.80;;;;;;5023240;28;20890;-72
2022/05/15 12:42:53;;;;;;;11.27;2.70;;;24.70;74.60;;;;;;5019387;28;20082;-72
2022/05/15 12:45:21;;;;;;;12.50;2.92;;;24.70;73.60;;;;;;5024372;28;20077;-78
2022/05/15 12:48:11;;;;;;;11.73;3.05;;;24.70;73.10;;;;;;5030647;28;20046;-75
2022/05/15 12:50:56;;;;;;;9.90;2.67;;;24.80;72.70;;;;;;5028290;28;20049;-75
2022/05/15 12:53:27;;;;;;;18.15;3.38;;;24.80;72.50;;;;;;5020382;28;20045;-81
2022/05/15 12:56:06;;;;;;;12.73;2.90;;;24.80;70.60;;;;;;5024943;28;20049;-77
2022/05/15 12:58:33;;;;;;;13.80;3.60;;;24.70;71.20;;;;;;5023003;28;20073;-78
2022/05/15 13:01:00;;;;;;;15.10;3.03;;;24.70;71.40;;;;;;5026822;28;20400;-78
2022/05/15 13:03:27;;;;;;;14.32;3.20;;;24.70;71.00;;;;;;5026950;28;20056;-78
2022/05/15 13:06:10;;;;;;;12.10;3.05;;;24.60;71.10;;;;;;5025365;28;20042;-78
2022/05/15 13:08:52;;;;;;;12.70;3.40;;;24.60;69.30;;;;;;5025628;28;20061;-78
2022/05/15 13:11:34;;;;;;;15.85;3.30;;;24.70;68.30;;;;;;5019063;28;20045;-79
2022/05/15 13:14:00;;;;;;;9.85;2.90;;;24.70;71.00;;;;;;5026137;28;20385;-79
2022/05/15 13:16:27;;;;;;;11.93;3.22;;;24.80;70.10;;;;;;5045179;28;20503;-80
2022/05/15 13:18:53;;;;;;;11.63;2.83;;;24.80;68.90;;;;;;5026912;28;20057;-78
2022/05/15 13:21:32;;;;;;;11.15;2.90;;;24.80;69.30;;;;;;5026258;28;20639;-77